Time;durP1;ratioP1;P1;durP2;ratioP2;P2;SDS_P1;SDS_P2;PMS_P1;PMS_P2;Temp;Humidity;BMP_temperature;BMP_pressure;BME280_temperature;BME280_humidity;BME280_pressure;Samples;Min_cycle;Max_cycle;Signal;HPM_P1;HPM_P2
2021/05/16 00:00:18;;;;;;;8.35;4.83;;;;;;;13.53;67.20;100107.73;1761128;80;21053;-60
2021/05/16 00:02:44;;;;;;;8.45;4.65;;;;;;;13.58;67.18;100107.30;1758875;79;21088;-60
2021/05/16 00:05:12;;;;;;;7.80;4.55;;;;;;;13.57;67.19;100109.12;1754907;79;21073;-60
2021/05/16 00:07:40;;;;;;;8.78;5.10;;;;;;;13.58;67.16;100109.94;1754655;80;21111;-60
2021/05/16 00:10:10;;;;;;;6.80;4.42;;;;;;;13.60;67.03;100113.26;1757102;79;21140;-60
2021/05/16 00:12:38;;;;;;;8.38;5.08;;;;;;;13.61;67.05;100115.76;1739778;80;21082;-60
2021/05/16 00:15:09;;;;;;;8.48;4.80;;;;;;;13.63;66.97;100111.14;1750576;79;21049;-59
2021/05/16 00:17:37;;;;;;;10.25;4.58;;;;;;;13.62;66.91;100109.50;1758269;79;21105;-59
2021/05/16 00:20:10;;;;;;;8.13;4.55;;;;;;;13.65;66.75;100107.89;1720178;81;21752;-59
2021/05/16 00:22:37;;;;;;;8.15;5.00;;;;;;;13.70;66.57;100111.37;1753303;79;21138;-60
2021/05/16 00:25:07;;;;;;;11.08;5.60;;;;;;;13.72;66.93;100112.91;1749596;81;21068;-60
2021/05/16 00:27:35;;;;;;;8.30;4.87;;;;;;;13.75;67.21;100121.02;1747073;81;21159;-60
2021/05/16 00:30:04;;;;;;;9.58;5.40;;;;;;;13.71;67.10;100117.84;1757598;79;21084;-60
2021/05/16 00:32:32;;;;;;;7.15;4.72;;;;;;;13.66;67.19;100114.00;1681584;85;21073;-60
2021/05/16 00:35:00;;;;;;;8.68;4.58;;;;;;;13.59;67.12;100112.44;1732835;81;21567;-59
2021/05/16 00:37:26;;;;;;;8.25;4.45;;;;;;;13.49;67.12;100116.45;1750094;81;21116;-59
2021/05/16 00:39:53;;;;;;;7.90;4.80;;;;;;;13.40;67.24;100115.19;1748902;79;21085;-59
2021/05/16 00:42:19;;;;;;;6.67;4.37;;;;;;;13.31;67.36;100116.88;1724374;81;21166;-59
2021/05/16 00:45:04;;;;;;;7.85;4.33;;;;;;;13.30;67.45;100110.77;1755389;79;21077;-59
2021/05/16 00:47:31;;;;;;;7.00;4.35;;;;;;;13.34;67.26;100116.62;1755468;81;21147;-60
2021/05/16 00:49:57;;;;;;;7.12;4.28;;;;;;;13.33;67.34;100117.58;1726880;81;21018;-60
2021/05/16 00:52:24;;;;;;;7.08;4.28;;;;;;;13.31;67.50;100120.34;1748707;79;21056;-60
2021/05/16 00:54:52;;;;;;;7.47;4.67;;;;;;;13.33;67.55;100128.16;1751828;81;21126;-60
2021/05/16 00:57:20;;;;;;;8.40;4.47;;;;;;;13.36;67.44;100125.22;1746984;81;21139;-60
2021/05/16 00:59:47;;;;;;;9.15;5.20;;;;;;;13.36;67.39;100128.72;1742480;81;21438;-60
2021/05/16 01:02:14;;;;;;;7.85;4.72;;;;;;;13.39;67.32;100124.94;1758369;79;21089;-60
2021/05/16 01:04:41;;;;;;;8.13;4.67;;;;;;;13.36;67.23;100127.86;1730332;81;21076;-60
2021/05/16 01:07:08;;;;;;;9.40;4.70;;;;;;;13.32;67.15;100121.22;1688751;83;21128;-60
2021/05/16 01:09:34;;;;;;;7.42;4.40;;;;;;;13.26;67.11;100125.73;1753189;79;21140;-60
2021/05/16 01:12:03;;;;;;;5.85;3.27;;;;;;;13.27;67.05;100122.13;1752204;79;21145;-60
2021/05/16 01:14:37;;;;;;;5.83;3.62;;;;;;;13.31;67.05;100122.16;1748641;79;21086;-60
2021/05/16 01:16:59;;;;;;;6.78;3.55;;;;;;;13.33;67.18;100128.16;1751928;79;21037;-60
2021/05/16 01:19:26;;;;;;;6.65;3.58;;;;;;;13.31;67.34;100135.37;1729010;81;21646;-60
2021/05/16 01:21:54;;;;;;;6.87;3.75;;;;;;;13.28;67.59;100133.88;1720275;79;21164;-60
2021/05/16 01:24:23;;;;;;;5.85;3.17;;;;;;;13.25;67.67;100128.05;1757170;79;21066;-60
2021/05/16 01:26:52;;;;;;;5.37;3.55;;;;;;;13.23;67.66;100133.95;1758984;79;21571;-60
2021/05/16 01:29:18;;;;;;;4.90;3.02;;;;;;;13.17;67.67;100128.27;1756642;79;21097;-59
2021/05/16 01:31:45;;;;;;;6.92;4.25;;;;;;;13.13;67.65;100133.52;1754151;81;21702;-59
2021/05/16 01:34:11;;;;;;;6.25;3.35;;;;;;;13.08;67.67;100136.23;1717264;81;21144;-60
2021/05/16 01:36:39;;;;;;;7.17;3.33;;;;;;;13.06;67.58;100138.19;1674827;83;21049;-60
2021/05/16 01:39:12;;;;;;;5.20;3.08;;;;;;;13.09;67.52;100128.16;1713653;81;21646;-60
2021/05/16 01:41:38;;;;;;;6.12;3.67;;;;;;;13.13;67.56;100136.16;1752345;79;21636;-60
2021/05/16 01:44:11;;;;;;;6.08;3.83;;;;;;;13.16;67.49;100141.16;1750483;81;21080;-60
2021/05/16 01:46:36;;;;;;;7.45;3.50;;;;;;;13.12;67.45;100146.37;1757225;79;21791;-60
2021/05/16 01:49:04;;;;;;;6.78;4.10;;;;;;;13.05;67.35;100137.37;1752918;79;21124;-60
2021/05/16 01:51:31;;;;;;;7.15;3.98;;;;;;;13.00;67.49;100136.97;1746418;81;21053;-60
2021/05/16 01:53:58;;;;;;;6.58;3.67;;;;;;;12.95;67.59;100140.53;1757814;79;21128;-60
2021/05/16 01:56:27;;;;;;;7.80;4.30;;;;;;;12.88;67.71;100133.67;1751460;81;21584;-60
2021/05/16 01:58:56;;;;;;;7.72;3.60;;;;;;;12.83;67.70;100138.56;1690433;83;21107;-60
2021/05/16 02:01:24;;;;;;;5.72;3.35;;;;;;;12.82;67.58;100133.74;1759497;79;21098;-60
2021/05/16 02:03:53;;;;;;;5.87;3.08;;;;;;;12.88;67.51;100136.31;1760312;79;21682;-60
2021/05/16 02:06:20;;;;;;;6.58;3.35;;;;;;;12.91;67.51;100144.42;1710128;81;21148;-60
2021/05/16 02:08:47;;;;;;;6.28;3.92;;;;;;;12.91;67.56;100148.38;1726401;81;21434;-60
2021/05/16 02:11:16;;;;;;;6.65;4.00;;;;;;;12.91;67.47;100153.66;1748737;79;21081;-60
2021/05/16 02:13:46;;;;;;;7.92;3.80;;;;;;;12.90;67.30;100156.80;1757558;79;21634;-60
2021/05/16 02:16:14;;;;;;;6.40;3.60;;;;;;;12.86;67.29;100151.95;1753052;79;21491;-60
2021/05/16 02:18:43;;;;;;;7.42;4.25;;;;;;;12.78;67.45;100156.14;1769457;79;21077;-60
2021/05/16 02:21:11;;;;;;;6.87;4.00;;;;;;;12.74;67.68;100159.20;1764968;79;21124;-60
2021/05/16 02:23:40;;;;;;;6.15;3.50;;;;;;;12.70;67.82;100160.48;1761368;80;21121;-60
2021/05/16 02:26:07;;;;;;;7.05;3.45;;;;;;;12.69;67.98;100161.44;1765919;80;21181;-60
2021/05/16 02:28:35;;;;;;;6.47;3.67;;;;;;;12.78;67.91;100162.74;1769328;80;21613;-60
2021/05/16 02:31:07;;;;;;;6.62;3.90;;;;;;;12.86;67.98;100163.36;1761694;79;21112;-60
2021/05/16 02:33:35;;;;;;;7.40;4.25;;;;;;;12.92;68.01;100160.62;1734571;80;21575;-60
2021/05/16 02:36:01;;;;;;;8.10;4.10;;;;;;;12.91;68.05;100160.27;1703995;82;21130;-60
2021/05/16 02:38:28;;;;;;;6.87;4.10;;;;;;;12.88;68.05;100162.72;1762817;80;21066;-60
2021/05/16 02:40:56;;;;;;;6.45;3.90;;;;;;;12.89;67.99;100167.51;1759194;79;21156;-59
2021/05/16 02:43:22;;;;;;;6.78;3.80;;;;;;;12.90;67.92;100177.11;1764125;80;21538;-60
2021/05/16 02:45:49;;;;;;;5.83;3.77;;;;;;;12.89;67.90;100180.22;1759948;80;21605;-60
2021/05/16 02:48:17;;;;;;;7.55;3.37;;;;;;;12.85;67.98;100178.02;1760944;79;22143;-60
2021/05/16 02:50:44;;;;;;;5.80;3.30;;;;;;;12.81;68.12;100179.63;1753264;80;21077;-60
2021/05/16 02:53:13;;;;;;;5.70;2.87;;;;;;;12.87;68.24;100178.21;1769771;79;21108;-59
2021/05/16 02:55:42;;;;;;;5.42;3.25;;;;;;;12.94;68.39;100187.72;1756611;80;21120;-59
2021/05/16 02:58:08;;;;;;;6.47;3.50;;;;;;;12.98;68.40;100185.16;1766196;80;21045;-59
2021/05/16 03:00:41;;;;;;;6.37;3.70;;;;;;;13.00;68.26;100190.62;1775424;79;21933;-60
2021/05/16 03:03:08;;;;;;;5.15;3.17;;;;;;;12.97;68.14;100184.80;1764607;80;21104;-60
2021/05/16 03:05:34;;;;;;;9.73;3.25;;;;;;;12.91;68.16;100198.56;1744394;80;21096;-60
2021/05/16 03:08:01;;;;;;;8.30;4.55;;;;;;;12.86;68.17;100193.73;1766130;80;21116;-62
2021/05/16 03:10:28;;;;;;;6.50;2.98;;;;;;;12.79;68.26;100192.61;1743348;80;21486;-66
2021/05/16 03:12:54;;;;;;;5.80;3.15;;;;;;;12.82;68.28;100198.44;1706018;82;21136;-60
2021/05/16 03:15:22;;;;;;;7.60;3.80;;;;;;;12.92;68.21;100201.55;1770505;80;21037;-60
2021/05/16 03:17:48;;;;;;;8.08;3.67;;;;;;;13.03;68.36;100205.36;1736458;80;21108;-61
2021/05/16 03:20:15;;;;;;;7.35;3.25;;;;;;;13.09;68.26;100203.45;1713144;82;21097;-61
2021/05/16 03:22:42;;;;;;;7.15;4.15;;;;;;;13.10;68.41;100195.88;1731714;80;21088;-67
2021/05/16 03:25:13;;;;;;;6.62;3.92;;;;;;;13.13;68.44;100197.38;1723042;82;21550;-63
2021/05/16 03:27:41;;;;;;;7.45;4.50;;;;;;;13.15;68.31;100194.13;1715982;80;21080;-62
2021/05/16 03:30:10;;;;;;;6.87;3.80;;;;;;;13.16;68.51;100187.85;1745200;81;21080;-60
2021/05/16 03:32:39;;;;;;;7.53;3.75;;;;;;;13.19;68.57;100190.21;1716652;82;21156;-62
2021/05/16 03:35:07;;;;;;;6.35;3.98;;;;;;;13.24;68.28;100193.75;1746700;80;21088;-63
2021/05/16 03:37:34;;;;;;;7.00;3.92;;;;;;;13.31;68.14;100194.33;1707792;82;21112;-63
2021/05/16 03:40:00;;;;;;;5.87;3.47;;;;;;;13.36;67.94;100196.58;1720370;82;21132;-63
2021/05/16 03:42:28;;;;;;;7.30;4.50;;;;;;;13.41;67.95;100190.86;1742473;80;21599;-62
2021/05/16 03:44:56;;;;;;;6.10;4.00;;;;;;;13.45;68.13;100197.50;1711435;82;21096;-62
2021/05/16 03:47:23;;;;;;;6.97;4.28;;;;;;;13.47;68.25;100200.86;1737665;81;21128;-63
2021/05/16 03:49:50;;;;;;;8.08;4.60;;;;;;;13.50;68.38;100204.04;1734980;80;21118;-61
2021/05/16 03:52:19;;;;;;;7.70;4.65;;;;;;;13.55;68.40;100209.72;1746666;82;21069;-61
2021/05/16 03:54:49;;;;;;;11.45;4.97;;;;;;;13.61;68.25;100212.75;1742631;80;21085;-60
2021/05/16 03:57:17;;;;;;;6.47;4.37;;;;;;;13.71;67.87;100221.47;1728018;81;21040;-60
2021/05/16 03:59:43;;;;;;;8.50;4.62;;;;;;;13.85;68.02;100214.38;1738672;80;21052;-60
2021/05/16 04:02:10;;;;;;;8.08;5.00;;;;;;;13.98;67.90;100217.14;1739077;81;21811;-60
2021/05/16 04:04:37;;;;;;;8.20;5.12;;;;;;;14.07;67.85;100223.70;1726280;82;21139;-60
2021/05/16 04:07:04;;;;;;;9.05;5.90;;;;;;;14.15;68.00;100226.90;1741199;81;21551;-59
2021/05/16 04:09:32;;;;;;;8.23;5.85;;;;;;;14.19;68.10;100226.96;1728514;80;21151;-60
2021/05/16 04:11:59;;;;;;;8.30;5.62;;;;;;;14.24;68.09;100222.52;1735688;80;21053;-60
2021/05/16 04:14:28;;;;;;;8.38;6.17;;;;;;;14.27;68.06;100212.95;1728950;82;21128;-62
2021/05/16 04:16:57;;;;;;;8.25;5.60;;;;;;;14.30;67.84;100210.83;1738198;80;21100;-60
2021/05/16 04:19:24;;;;;;;8.10;5.50;;;;;;;14.37;67.64;100215.53;1758642;80;21766;-61
2021/05/16 04:21:50;;;;;;;7.12;4.95;;;;;;;14.52;67.56;100216.66;1769852;79;21034;-60
2021/05/16 04:24:17;;;;;;;10.45;5.97;;;;;;;14.66;67.60;100212.19;1734005;79;21033;-61
2021/05/16 04:26:44;;;;;;;9.73;6.60;;;;;;;14.77;67.08;100201.83;1769923;80;21131;-61
2021/05/16 04:29:11;;;;;;;9.10;6.22;;;;;;;14.82;67.04;100199.54;1760836;80;21645;-62
2021/05/16 04:33:16;;;;;;;8.78;6.37;;;;;;;14.95;66.55;100194.34;1868592;74;22232;-61
2021/05/16 04:35:43;;;;;;;11.08;6.85;;;;;;;14.94;66.15;100192.17;1847127;75;20996;-61
2021/05/16 04:38:09;;;;;;;10.13;6.50;;;;;;;14.97;66.07;100197.16;1810666;75;22688;-61
2021/05/16 04:40:36;;;;;;;8.60;5.92;;;;;;;15.02;66.10;100191.41;1834680;75;21035;-62
2021/05/16 04:43:03;;;;;;;8.08;5.50;;;;;;;15.12;65.86;100196.09;1816554;77;21546;-62
2021/05/16 04:45:29;;;;;;;10.40;5.47;;;;;;;15.30;65.65;100189.87;1849318;75;21016;-61
2021/05/16 04:47:56;;;;;;;7.53;5.25;;;;;;;15.45;65.27;100195.42;1835351;75;21641;-61
2021/05/16 04:50:23;;;;;;;8.10;6.00;;;;;;;15.57;65.18;100197.64;1837727;75;21638;-62
2021/05/16 04:52:50;;;;;;;10.58;6.42;;;;;;;15.62;64.68;100198.49;1852379;75;21383;-61
2021/05/16 04:55:16;;;;;;;8.55;5.95;;;;;;;15.69;64.62;100194.20;1840793;75;21091;-61
2021/05/16 04:57:44;;;;;;;9.18;6.58;;;;;;;15.76;64.37;100199.22;1847411;76;21131;-61
2021/05/16 05:00:14;;;;;;;9.05;6.20;;;;;;;15.84;64.24;100194.95;1822733;75;21134;-60
2021/05/16 05:02:42;;;;;;;8.80;6.00;;;;;;;15.84;63.41;100192.30;1813520;76;21654;-62
2021/05/16 05:05:09;;;;;;;8.73;5.60;;;;;;;15.77;63.34;100192.11;1842667;76;21641;-60
2021/05/16 05:07:36;;;;;;;7.62;4.83;;;;;;;15.77;63.37;100186.30;1779604;78;21089;-60
2021/05/16 05:10:04;;;;;;;9.15;5.90;;;;;;;15.85;63.32;100176.19;1776077;78;21666;-59
2021/05/16 05:12:30;;;;;;;8.90;6.22;;;;;;;15.91;63.45;100172.08;1807773;77;21067;-58
2021/05/16 05:14:56;;;;;;;8.93;6.08;;;;;;;15.92;63.23;100173.24;1765382;78;21527;-60
2021/05/16 05:17:25;;;;;;;9.93;6.67;;;;;;;15.91;63.47;100166.77;1746824;78;21065;-59
2021/05/16 05:19:52;;;;;;;10.43;7.15;;;;;;;15.95;63.38;100165.44;1775885;78;21142;-59
2021/05/16 05:22:18;;;;;;;9.58;6.80;;;;;;;15.94;63.14;100163.80;1803200;77;21831;-59
2021/05/16 05:24:44;;;;;;;8.90;6.30;;;;;;;15.92;63.45;100165.76;1781921;78;21088;-59
2021/05/16 05:27:11;;;;;;;7.30;5.50;;;;;;;15.98;63.80;100155.32;1814252;78;21845;-60
2021/05/16 05:29:38;;;;;;;9.80;6.22;;;;;;;16.13;63.95;100154.18;1801454;77;21112;-60
2021/05/16 05:32:05;;;;;;;10.60;6.85;;;;;;;16.28;63.66;100161.50;1798625;77;22294;-59
2021/05/16 05:34:31;;;;;;;9.53;6.55;;;;;;;16.37;63.57;100164.48;1744771;79;21109;-59
2021/05/16 05:36:58;;;;;;;9.70;6.90;;;;;;;16.45;63.63;100169.80;1801865;77;20995;-60
2021/05/16 05:39:24;;;;;;;10.18;7.20;;;;;;;16.52;63.71;100165.97;1806130;77;21065;-59
2021/05/16 05:41:51;;;;;;;10.20;6.17;;;;;;;16.59;63.42;100164.30;1795898;77;21168;-59
2021/05/16 05:44:17;;;;;;;10.08;7.42;;;;;;;16.63;63.56;100160.83;1806726;78;21137;-62
2021/05/16 05:46:44;;;;;;;7.85;5.37;;;;;;;16.66;63.81;100166.64;1774821;77;21127;-62
2021/05/16 05:49:10;;;;;;;9.58;6.03;;;;;;;16.75;64.30;100171.44;1771428;78;21176;-61
2021/05/16 05:51:38;;;;;;;8.35;5.28;;;;;;;16.92;64.25;100169.61;1762235;79;22286;-66
2021/05/16 05:54:06;;;;;;;9.18;6.08;;;;;;;17.09;64.20;100173.05;1782994;78;21104;-61
2021/05/16 05:56:35;;;;;;;10.70;6.53;;;;;;;17.23;64.11;100175.02;1788280;78;21647;-62
2021/05/16 05:59:03;;;;;;;8.35;5.60;;;;;;;17.35;64.01;100174.14;1786603;78;21090;-61
2021/05/16 06:01:29;;;;;;;8.85;6.37;;;;;;;17.49;64.06;100173.91;1786561;78;21082;-61
2021/05/16 06:03:56;;;;;;;9.23;6.15;;;;;;;17.59;63.67;100177.70;1786198;78;21139;-59
2021/05/16 06:06:22;;;;;;;8.18;6.15;;;;;;;17.63;63.58;100171.86;1783595;78;21627;-59
2021/05/16 06:08:49;;;;;;;7.67;5.35;;;;;;;17.69;63.58;100169.51;1783170;78;21073;-71
2021/05/16 06:11:15;;;;;;;10.45;7.00;;;;;;;17.79;63.03;100167.45;1783097;78;21072;-70
2021/05/16 06:13:42;;;;;;;10.00;6.70;;;;;;;17.95;62.88;100171.86;1813460;77;21030;-67
2021/05/16 06:16:09;;;;;;;11.30;7.03;;;;;;;18.11;62.54;100177.09;1801476;78;21472;-69
2021/05/16 06:18:36;;;;;;;10.38;7.50;;;;;;;18.25;62.01;100176.00;1781683;77;21124;-69
2021/05/16 06:21:04;;;;;;;10.88;7.58;;;;;;;18.33;61.72;100176.75;1801148;77;21614;-72
2021/05/16 06:23:43;;;;;;;10.15;7.55;;;;;;;18.38;61.01;100174.89;1804184;77;21152;-68
2021/05/16 06:26:02;;;;;;;10.28;7.78;;;;;;;18.39;61.11;100175.20;1800483;78;21600;-68
2021/05/16 06:28:28;;;;;;;11.18;7.10;;;;;;;18.43;60.84;100174.37;1812020;77;22066;-70
2021/05/16 06:30:55;;;;;;;9.93;7.37;;;;;;;18.49;60.58;100176.29;1809212;77;21117;-69
2021/05/16 06:33:21;;;;;;;9.63;6.67;;;;;;;18.50;60.42;100183.29;1760135;79;21100;-68
2021/05/16 06:35:48;;;;;;;9.50;6.17;;;;;;;18.49;60.25;100186.47;1791612;78;21577;-68
2021/05/16 06:38:15;;;;;;;8.93;6.20;;;;;;;18.51;59.51;100183.11;1796606;78;21593;-69
2021/05/16 06:40:42;;;;;;;7.85;5.10;;;;;;;18.55;59.53;100182.25;1802370;78;21598;-69
2021/05/16 06:43:10;;;;;;;6.55;4.20;;;;;;;18.65;59.05;100185.48;1799308;78;21576;-70
2021/05/16 06:45:37;;;;;;;7.80;5.30;;;;;;;18.84;58.43;100187.34;1789919;78;21221;-69
2021/05/16 06:48:06;;;;;;;8.75;5.35;;;;;;;18.96;58.22;100181.88;1766231;79;21099;-69
2021/05/16 06:50:32;;;;;;;8.25;5.50;;;;;;;19.05;58.01;100179.46;1792432;78;21091;-70
2021/05/16 06:52:59;;;;;;;7.65;4.15;;;;;;;19.12;57.69;100176.37;1799115;78;21145;-71
2021/05/16 06:55:26;;;;;;;6.00;3.60;;;;;;;19.19;57.01;100180.47;1796765;78;21088;-66
2021/05/16 06:57:53;;;;;;;5.80;2.80;;;;;;;19.29;56.03;100178.86;1768759;79;21086;-67
2021/05/16 07:00:20;;;;;;;5.12;3.08;;;;;;;19.38;55.61;100173.73;1795796;78;22457;-71
2021/05/16 07:02:47;;;;;;;6.25;3.25;;;;;;;19.46;55.22;100170.97;1798264;78;21064;-69
2021/05/16 07:05:14;;;;;;;5.25;2.90;;;;;;;19.52;54.63;100171.23;1793963;78;21142;-69
2021/05/16 07:07:41;;;;;;;5.08;2.20;;;;;;;19.55;54.15;100168.20;1799711;78;21108;-70
2021/05/16 07:10:08;;;;;;;5.37;2.58;;;;;;;19.59;53.12;100173.50;1797990;78;21123;-72
2021/05/16 07:12:35;;;;;;;5.12;2.62;;;;;;;19.62;53.43;100179.28;1795824;78;21508;-70
2021/05/16 07:15:03;;;;;;;5.50;2.77;;;;;;;19.66;53.88;100177.06;1798866;78;21068;-65
2021/05/16 07:17:30;;;;;;;5.22;2.65;;;;;;;19.74;53.48;100180.96;1802687;79;21285;-70
2021/05/16 07:19:58;;;;;;;4.70;2.65;;;;;;;19.80;53.28;100180.73;1793690;77;22386;-61
2021/05/16 07:22:24;;;;;;;5.28;2.83;;;;;;;19.85;53.24;100183.18;1799096;77;21111;-65
2021/05/16 07:24:50;;;;;;;5.33;2.95;;;;;;;19.91;54.03;100190.11;1797981;78;21123;-65
2021/05/16 07:27:17;;;;;;;5.05;2.60;;;;;;;19.99;53.96;100188.67;1799482;78;21109;-64
2021/05/16 07:29:43;;;;;;;5.10;2.55;;;;;;;20.06;53.46;100192.22;1796408;78;22072;-66
2021/05/16 07:32:09;;;;;;;4.85;2.58;;;;;;;20.13;52.95;100184.28;1802183;78;21123;-64
2021/05/16 07:34:36;;;;;;;4.00;1.52;;;;;;;20.20;52.91;100183.31;1800911;77;21049;-69
2021/05/16 07:37:02;;;;;;;4.15;1.82;;;;;;;20.23;51.22;100173.58;1821436;78;21083;-68
2021/05/16 07:39:29;;;;;;;3.98;1.35;;;;;;;20.27;50.80;100171.35;1785579;78;21125;-66
2021/05/16 07:41:57;;;;;;;4.83;1.82;;;;;;;20.26;50.35;100170.20;1791249;78;21158;-68
2021/05/16 07:44:23;;;;;;;5.20;1.70;;;;;;;20.27;50.35;100176.70;1790697;78;21574;-65
2021/05/16 07:46:50;;;;;;;5.85;2.20;;;;;;;20.31;50.32;100178.47;1791882;78;21143;-69
2021/05/16 07:49:17;;;;;;;5.53;2.08;;;;;;;20.36;49.48;100171.55;1788968;78;21122;-69
2021/05/16 07:51:43;;;;;;;5.10;1.87;;;;;;;20.41;49.61;100174.47;1768908;78;21081;-67
2021/05/16 07:54:10;;;;;;;4.53;1.80;;;;;;;20.46;49.84;100168.56;1807985;78;21158;-67
2021/05/16 07:56:36;;;;;;;3.67;1.37;;;;;;;20.53;49.51;100166.76;1791259;78;21327;-67
2021/05/16 07:59:02;;;;;;;3.98;1.57;;;;;;;20.60;48.93;100167.62;1804334;77;21143;-68
2021/05/16 08:01:29;;;;;;;4.08;1.42;;;;;;;20.69;47.83;100163.51;1788470;78;21053;-69
2021/05/16 08:03:56;;;;;;;3.37;1.12;;;;;;;20.75;48.04;100164.08;1816535;77;21102;-64
2021/05/16 08:06:22;;;;;;;3.37;0.80;;;;;;;20.81;46.68;100161.94;1816981;77;21135;-64
2021/05/16 08:08:49;;;;;;;4.50;0.98;;;;;;;20.89;46.40;100149.75;1787148;78;21099;-60
2021/05/16 08:11:16;;;;;;;3.30;0.62;;;;;;;20.97;46.12;100158.15;1791271;78;21616;-66
2021/05/16 08:13:45;;;;;;;3.50;0.90;;;;;;;21.06;45.86;100154.28;1788914;77;21073;-63
2021/05/16 08:16:11;;;;;;;6.12;1.07;;;;;;;21.13;45.44;100158.33;1815698;77;21088;-68
2021/05/16 08:18:40;;;;;;;4.08;0.90;;;;;;;21.20;45.13;100156.53;1817279;78;21689;-66
2021/05/16 08:21:10;;;;;;;5.45;1.62;;;;;;;21.25;45.51;100154.09;1817502;77;21045;-64
2021/05/16 08:23:40;;;;;;;6.05;1.92;;;;;;;21.30;44.92;100154.81;1818126;78;21076;-65
2021/05/16 08:26:10;;;;;;;5.67;2.30;;;;;;;21.35;44.89;100147.04;1811653;78;21032;-65
2021/05/16 08:28:40;;;;;;;7.80;2.50;;;;;;;21.41;44.21;100146.22;1797322;79;21029;-65
2021/05/16 08:31:06;;;;;;;7.28;1.82;;;;;;;21.47;44.70;100151.34;1789969;78;21415;-65
2021/05/16 08:33:33;;;;;;;4.62;1.77;;;;;;;21.56;44.27;100151.98;1755598;78;21080;-64
2021/05/16 08:35:59;;;;;;;2.58;0.90;;;;;;;21.61;44.19;100151.68;1800310;77;21341;-67
2021/05/16 08:38:26;;;;;;;4.17;1.42;;;;;;;21.68;43.99;100154.38;1784010;78;21115;-63
2021/05/16 08:40:52;;;;;;;3.60;1.02;;;;;;;21.73;43.33;100145.75;1769111;79;21073;-70
2021/05/16 08:43:18;;;;;;;2.45;1.00;;;;;;;21.77;43.04;100149.66;1796172;78;21087;-67
2021/05/16 08:45:47;;;;;;;2.27;0.80;;;;;;;21.81;43.82;100140.21;1774286;78;21090;-61
2021/05/16 08:48:13;;;;;;;2.67;1.15;;;;;;;21.88;43.81;100142.38;1792080;78;21764;-68
2021/05/16 08:50:41;;;;;;;2.92;1.17;;;;;;;21.94;43.66;100138.91;1780885;78;21133;-61
2021/05/16 08:53:07;;;;;;;2.77;1.00;;;;;;;22.02;43.64;100141.39;1801391;77;21069;-66
2021/05/16 08:55:36;;;;;;;3.50;0.85;;;;;;;22.07;43.29;100139.41;1804081;77;21108;-67
2021/05/16 08:58:03;;;;;;;2.83;1.10;;;;;;;22.09;42.66;100132.02;1764469;78;21101;-66
2021/05/16 09:00:32;;;;;;;3.55;0.80;;;;;;;22.13;42.36;100133.25;1777957;78;21154;-68
2021/05/16 09:03:08;;;;;;;2.98;1.00;;;;;;;22.13;42.74;100127.89;1780031;77;20973;-66
2021/05/16 09:05:43;;;;;;;3.20;1.17;;;;;;;22.15;43.05;100122.33;1780435;78;21179;-68
2021/05/16 09:08:20;;;;;;;5.62;1.72;;;;;;;22.18;43.07;100123.27;1806856;77;21216;-67
2021/05/16 09:10:58;;;;;;;4.60;1.50;;;;;;;22.24;42.89;100121.08;1804252;77;21742;-66
2021/05/16 09:13:27;;;;;;;3.35;0.80;;;;;;;22.33;43.32;100116.39;1801363;77;21087;-66
2021/05/16 09:16:17;;;;;;;3.45;1.20;;;;;;;22.41;43.45;100118.34;1769543;78;21128;-67
2021/05/16 09:18:53;;;;;;;3.17;1.20;;;;;;;22.51;43.88;100115.75;1784449;79;21464;-64
2021/05/16 09:21:32;;;;;;;1.85;0.65;;;;;;;22.61;42.84;100110.78;1800024;77;21097;-65
2021/05/16 09:24:06;;;;;;;4.47;0.90;;;;;;;22.71;42.72;100112.55;1804475;78;21017;-65
2021/05/16 09:26:52;;;;;;;5.08;0.90;;;;;;;22.77;42.62;100103.64;1803065;77;21129;-64
2021/05/16 09:29:32;;;;;;;2.40;0.72;;;;;;;22.86;42.88;100103.41;1814171;77;21024;-66
2021/05/16 09:32:01;;;;;;;2.50;0.70;;;;;;;22.95;42.75;100098.14;1787455;78;21114;-65
2021/05/16 09:34:31;;;;;;;4.50;0.80;;;;;;;23.04;42.26;100108.94;1782907;80;21112;-66
2021/05/16 09:36:58;;;;;;;2.65;0.78;;;;;;;23.13;41.89;100103.69;1788439;78;21101;-66
2021/05/16 09:39:29;;;;;;;2.67;0.90;;;;;;;23.21;41.23;100100.45;1812177;78;21104;-66
2021/05/16 09:42:13;;;;;;;2.10;0.72;;;;;;;23.25;41.95;100101.16;1814830;77;21588;-66
2021/05/16 09:44:51;;;;;;;2.47;0.75;;;;;;;23.36;42.02;100098.31;1803237;78;21127;-65
2021/05/16 09:47:30;;;;;;;3.22;0.65;;;;;;;23.47;41.55;100103.01;1803912;78;21089;-65
2021/05/16 09:49:55;;;;;;;4.00;1.00;;;;;;;23.59;40.82;100104.99;1810695;78;21022;-66
2021/05/16 09:52:32;;;;;;;4.00;1.00;;;;;;;23.68;40.76;100103.72;1806523;77;21145;-64
2021/05/16 09:55:09;;;;;;;2.40;0.80;;;;;;;23.75;41.31;100101.80;1766595;78;21530;-63
2021/05/16 09:57:42;;;;;;;3.42;1.00;;;;;;;23.87;40.83;100104.65;1805769;78;21077;-65
2021/05/16 10:00:11;;;;;;;2.15;0.70;;;;;;;23.97;40.61;100093.42;1781985;77;21101;-66
2021/05/16 10:02:37;;;;;;;3.15;1.02;;;;;;;24.06;40.91;100098.84;1810022;77;21041;-65
2021/05/16 10:05:08;;;;;;;3.67;1.00;;;;;;;24.16;41.16;100087.08;1800681;78;21718;-66
2021/05/16 10:07:34;;;;;;;2.37;0.75;;;;;;;24.25;39.97;100080.38;1809877;77;21128;-63
2021/05/16 10:10:03;;;;;;;1.77;0.65;;;;;;;24.31;39.78;100077.34;1809110;77;21076;-65
2021/05/16 10:12:30;;;;;;;3.37;0.90;;;;;;;24.36;39.80;100065.40;1799431;78;21100;-64
2021/05/16 10:15:10;;;;;;;4.00;1.02;;;;;;;24.42;39.86;100069.06;1795884;77;21452;-63
2021/05/16 10:17:37;;;;;;;3.15;0.90;;;;;;;24.48;40.07;100064.14;1788820;77;21108;-65
2021/05/16 10:20:15;;;;;;;1.85;0.70;;;;;;;24.55;39.82;100059.55;1808875;77;21412;-64
2021/05/16 10:22:54;;;;;;;2.33;0.75;;;;;;;24.63;39.20;100056.56;1783950;78;21038;-64
2021/05/16 10:25:44;;;;;;;1.92;0.75;;;;;;;24.72;38.90;100054.39;1775959;78;21060;-64
2021/05/16 10:28:17;;;;;;;1.77;0.68;;;;;;;24.81;38.81;100062.98;1812759;77;22621;-64
2021/05/16 10:31:10;;;;;;;1.67;0.60;;;;;;;24.88;38.44;100064.25;1783910;78;21118;-64
2021/05/16 10:33:40;;;;;;;1.72;0.55;;;;;;;24.96;39.04;100055.34;1804021;78;21497;-63
2021/05/16 10:36:08;;;;;;;1.40;0.47;;;;;;;25.07;38.30;100061.05;1773267;78;21109;-64
2021/05/16 10:38:40;;;;;;;1.87;0.60;;;;;;;25.14;38.33;100051.00;1787751;78;21129;-64
2021/05/16 10:41:24;;;;;;;2.35;0.62;;;;;;;25.22;38.17;100048.00;1800470;78;21121;-64
2021/05/16 10:43:51;;;;;;;1.45;0.40;;;;;;;25.34;37.64;100045.39;1809033;77;21114;-64
2021/05/16 10:46:42;;;;;;;2.45;0.98;;;;;;;25.44;37.43;100044.30;1807563;77;21051;-63
2021/05/16 10:49:31;;;;;;;1.75;0.60;;;;;;;25.52;37.68;100040.45;1783012;78;21079;-64
2021/05/16 10:52:18;;;;;;;3.17;0.70;;;;;;;25.60;37.89;100037.43;1787442;78;21062;-66
2021/05/16 10:54:49;;;;;;;2.62;0.50;;;;;;;25.68;37.23;100037.09;1781168;78;21419;-65
2021/05/16 10:57:19;;;;;;;1.95;0.55;;;;;;;25.74;37.36;100031.33;1789122;78;21130;-64
2021/05/16 10:59:45;;;;;;;1.67;0.55;;;;;;;25.82;37.33;100020.72;1792460;78;21136;-63
2021/05/16 11:03:09;;;;;;;1.65;0.60;;;;;;;25.85;37.86;100018.91;1791634;78;21559;-64
2021/05/16 11:05:55;;;;;;;2.42;0.80;;;;;;;25.86;36.65;100007.09;1756747;79;21157;-64
2021/05/16 11:08:26;;;;;;;2.45;0.70;;;;;;;25.88;36.96;100013.87;1779609;78;20947;-65
2021/05/16 11:10:55;;;;;;;1.42;0.57;;;;;;;25.93;37.21;100008.60;1740663;79;21577;-66
2021/05/16 11:13:26;;;;;;;2.83;0.70;;;;;;;26.02;36.38;100006.41;1754747;79;21147;-65
2021/05/16 11:16:09;;;;;;;1.75;0.62;;;;;;;26.08;35.79;99996.58;1787677;78;21615;-65
2021/05/16 11:18:35;;;;;;;1.72;0.50;;;;;;;26.16;35.43;99999.44;1786715;78;21130;-63
2021/05/16 11:21:06;;;;;;;1.80;0.60;;;;;;;26.18;36.19;99995.46;1778981;78;21024;-64
2021/05/16 11:23:39;;;;;;;1.62;0.60;;;;;;;26.23;36.02;99992.06;1784008;78;21060;-65
2021/05/16 11:26:13;;;;;;;1.85;0.60;;;;;;;26.30;35.39;99985.47;1764877;78;21048;-64
2021/05/16 11:28:56;;;;;;;1.37;0.50;;;;;;;26.38;35.10;99991.05;1769834;78;21108;-65
2021/05/16 11:31:28;;;;;;;2.30;0.70;;;;;;;26.40;34.35;99987.58;1781296;78;21202;-69
2021/05/16 11:34:01;;;;;;;1.25;0.42;;;;;;;26.39;34.88;99985.11;1762900;79;21111;-69